^^
Refsnesbakken Borettslag Station Historical Data
 
Daily Summary for May 03, 2026 Units:  Metric    English   Both
Daily Weekly Monthly Yearly
  Current: High: Low: Average:
Temperature: 7.1 °C 9 °C 7.1 °C 8.2 °C
Dew Point: 6.4 °C 8.1 °C 6.4 °C 7.3 °C
Humidity: 95% 95% 94% 95%
Wind Speed: 13km/h 13km/h 3.7km/h 9.4km/h
Wind Gust: 13km/h 13km/h - -
WindNNE - - SSE
Pressure: 1012.4 hPa 1012.4 hPa 1011.5 hPa -
Precipitation: 0.2 mm      
 
 
Tabular Data for May 03, 2026
Time Temperature Dew Point Pressure Wind Wind Speed Wind Gust Humidity Rainfall Rate (Hourly) solar
00:09 9 °C 8.1 °C 1012.0 hPa SSW 11.1 km/h 11.3 km/h 94% 0.0 mm 0 W/m2
00:14 9 °C 8.1 °C 1011.9 hPa SSW 11.1 km/h 11.3 km/h 94% 0.0 mm 0 W/m2
00:19 8.9 °C 8 °C 1012.0 hPa SSW 11.1 km/h 11.3 km/h 94% 0.0 mm 0 W/m2
00:24 8.9 °C 8 °C 1011.9 hPa SSW 11.1 km/h 11.3 km/h 94% 0.0 mm 0 W/m2
00:29 8.9 °C 8 °C 1012.0 hPa SSW 11.1 km/h 11.3 km/h 94% 0.0 mm 0 W/m2
00:34 8.9 °C 8 °C 1012.0 hPa SSW 12.6 km/h 13 km/h 94% 0.0 mm 0 W/m2
00:39 8.9 °C 8 °C 1011.9 hPa SSW 13 km/h 13 km/h 94% 0.0 mm 0 W/m2
00:44 8.9 °C 8.1 °C 1012.0 hPa SSW 13 km/h 13 km/h 94% 0.0 mm 0 W/m2
00:49 8.9 °C 8.1 °C 1012.0 hPa SSW 13 km/h 13 km/h 94% 0.0 mm 0 W/m2
00:54 8.9 °C 8.1 °C 1011.9 hPa SSW 13 km/h 13 km/h 94% 0.0 mm 0 W/m2
00:59 9 °C 8.1 °C 1012.0 hPa SSW 13 km/h 13 km/h 94% 0.0 mm 0 W/m2
01:04 9 °C 8.1 °C 1011.9 hPa SSW 12.2 km/h 13 km/h 94% 0.0 mm 0 W/m2
01:09 8.9 °C 8.1 °C 1012.0 hPa SSW 11.1 km/h 12.9 km/h 94% 0.0 mm 0 W/m2
01:14 9 °C 8.1 °C 1011.9 hPa SSW 11.1 km/h 11.3 km/h 94% 0.0 mm 0 W/m2
01:19 9 °C 8.1 °C 1011.8 hPa SSW 11.1 km/h 11.3 km/h 94% 0.0 mm 0 W/m2
01:24 8.9 °C 8.1 °C 1011.8 hPa SSW 11.1 km/h 11.3 km/h 94% 0.0 mm 0 W/m2
01:29 9 °C 8.1 °C 1011.8 hPa SSW 11.1 km/h 11.3 km/h 94% 0.0 mm 0 W/m2
01:34 8.9 °C 8 °C 1011.7 hPa SSW 10.4 km/h 11.3 km/h 94% 0.0 mm 0 W/m2
01:39 8.7 °C 7.8 °C 1011.5 hPa SSW 9.3 km/h 11.3 km/h 94% 0.0 mm 0 W/m2
01:44 8.6 °C 7.7 °C 1011.5 hPa SSW 9.3 km/h 9.7 km/h 94% 0.0 mm 0 W/m2
01:49 8.5 °C 7.6 °C 1011.5 hPa SSW 9.3 km/h 9.7 km/h 94% 0.0 mm 0 W/m2
01:54 8.4 °C 7.5 °C 1011.5 hPa SSW 9.3 km/h 9.7 km/h 94% 0.0 mm 0 W/m2
01:59 8.4 °C 7.5 °C 1011.5 hPa SSW 9.3 km/h 9.7 km/h 94% 0.0 mm 0 W/m2
02:04 8.4 °C 7.5 °C 1011.5 hPa SSW 9.3 km/h 9.7 km/h 94% 0.0 mm 0 W/m2
02:09 8.3 °C 7.4 °C 1011.6 hPa South 9.3 km/h 9.7 km/h 94% 0.0 mm 0 W/m2
02:14 8.4 °C 7.6 °C 1011.6 hPa South 9.3 km/h 9.7 km/h 94.7% 0.0 mm 0 W/m2
02:19 8.5 °C 7.7 °C 1011.6 hPa South 9.3 km/h 9.7 km/h 95% 0.0 mm 0 W/m2
02:24 8.7 °C 7.9 °C 1011.7 hPa South 9.3 km/h 9.7 km/h 95% 0.0 mm 0 W/m2
02:29 8.7 °C 7.9 °C 1011.6 hPa South 9.3 km/h 9.7 km/h 95% 0.0 mm 0 W/m2
02:34 8.6 °C 7.9 °C 1011.5 hPa SSW 8.6 km/h 9.7 km/h 94.9% 0.0 mm 0 W/m2
02:39 8.5 °C 7.6 °C 1011.5 hPa SSW 7.4 km/h 9.7 km/h 94% 0.0 mm 0 W/m2
02:44 8.4 °C 7.5 °C 1011.6 hPa SSW 7.4 km/h 8 km/h 94% 0.0 mm 0 W/m2
02:49 8.3 °C 7.4 °C 1011.6 hPa SSW 7.4 km/h 8 km/h 94% 0.0 mm 0 W/m2
02:54 8.2 °C 7.3 °C 1011.5 hPa SSW 7.4 km/h 8 km/h 94% 0.0 mm 0 W/m2
02:59 8.1 °C 7.2 °C 1011.6 hPa SSW 7.4 km/h 8 km/h 94% 0.0 mm 0 W/m2
03:04 8 °C 7.1 °C 1011.6 hPa SSW 7.4 km/h 8 km/h 94% 0.0 mm 0 W/m2
03:09 8 °C 7.2 °C 1011.6 hPa SSW 7.4 km/h 8 km/h 95% 0.0 mm 0 W/m2
03:14 8 °C 7.2 °C 1011.8 hPa SSW 7.4 km/h 8 km/h 95% 0.0 mm 0 W/m2
03:19 8 °C 7.2 °C 1011.8 hPa SSW 7.4 km/h 8 km/h 95% 0.0 mm 0 W/m2
03:24 8 °C 7.2 °C 1011.7 hPa SSW 7.4 km/h 8 km/h 95% 0.0 mm 0 W/m2
03:29 8 °C 7.2 °C 1011.7 hPa SSW 7.4 km/h 8 km/h 95% 0.0 mm 0 W/m2
03:34 7.9 °C 7.2 °C 1011.6 hPa SSW 7.4 km/h 8 km/h 95% 0.0 mm 0 W/m2
03:39 7.9 °C 7.1 °C 1011.5 hPa SSW 7.4 km/h 8 km/h 95% 0.2 mm 0 W/m2
03:44 7.8 °C 7.1 °C 1011.5 hPa SSW 7.4 km/h 8 km/h 94.9% 0.2 mm 0 W/m2
03:49 7.8 °C 7 °C 1011.5 hPa SSW 7.4 km/h 8 km/h 94.9% 0.2 mm 0 W/m2
03:54 7.8 °C 7 °C 1011.5 hPa SSW 7.4 km/h 8 km/h 95% 0.2 mm 0 W/m2
03:59 7.8 °C 7 °C 1011.5 hPa SSW 7.4 km/h 8 km/h 95% 0.2 mm 0 W/m2
04:04 7.8 °C 7 °C 1011.5 hPa SSE 5.9 km/h 8 km/h 95% 0.2 mm 0 W/m2
04:09 7.8 °C 7 °C 1011.6 hPa NE 3.7 km/h 8 km/h 95% 0.2 mm 0 W/m2
04:14 7.8 °C 7 °C 1011.9 hPa NE 3.7 km/h 3.7 km/h 95% 0.2 mm 0 W/m2
04:19 7.9 °C 7.1 °C 1011.9 hPa NE 3.7 km/h 3.7 km/h 95% 0.2 mm 0 W/m2
04:24 7.9 °C 7.1 °C 1011.8 hPa NE 3.7 km/h 3.7 km/h 95% 0.2 mm 0 W/m2
04:29 7.9 °C 7.1 °C 1011.7 hPa NE 3.7 km/h 3.7 km/h 95% 0.2 mm 0 W/m2
04:34 7.8 °C 7 °C 1011.8 hPa North 5.2 km/h 5.6 km/h 95% 0.2 mm 0 W/m2
04:39 7.7 °C 6.9 °C 1011.8 hPa North 5.6 km/h 5.6 km/h 95% 0.2 mm 0 W/m2
04:44 7.7 °C 6.9 °C 1011.8 hPa North 5.6 km/h 5.6 km/h 95% 0.0 mm 0 W/m2
04:49 7.6 °C 6.9 °C 1011.8 hPa North 5.6 km/h 5.6 km/h 95% 0.0 mm 0 W/m2
04:54 7.6 °C 6.9 °C 1011.8 hPa North 5.6 km/h 5.6 km/h 95% 0.0 mm 0 W/m2
04:59 7.5 °C 6.8 °C 1011.9 hPa North 5.6 km/h 5.6 km/h 95% 0.0 mm 0 W/m2
05:04 7.5 °C 6.8 °C 1011.9 hPa North 11.4 km/h 13 km/h 95% 0.0 mm 0 W/m2
05:09 7.5 °C 6.8 °C 1011.8 hPa North 13 km/h 13 km/h 95% 0.0 mm 0 W/m2
05:14 7.5 °C 6.8 °C 1011.9 hPa North 13 km/h 13 km/h 95% 0.0 mm 0 W/m2
05:19 7.5 °C 6.8 °C 1012.0 hPa North 13 km/h 13 km/h 95% 0.0 mm 0 W/m2
05:24 7.6 °C 6.8 °C 1012.0 hPa North 13 km/h 13 km/h 95% 0.0 mm 7 W/m2
05:29 7.6 °C 6.8 °C 1012.1 hPa North 13 km/h 13 km/h 95% 0.0 mm 11 W/m2
05:34 7.5 °C 6.8 °C 1012.0 hPa NNE 13 km/h 13 km/h 95% 0.0 mm 12 W/m2
05:39 7.5 °C 6.7 °C 1012.1 hPa NNE 13 km/h 13 km/h 95% 0.0 mm 12 W/m2
05:44 7.4 °C 6.7 °C 1012.0 hPa NNE 13 km/h 13 km/h 95% 0.0 mm 12 W/m2
05:49 7.4 °C 6.7 °C 1012.1 hPa NNE 13 km/h 13 km/h 95% 0.0 mm 16 W/m2
05:54 7.4 °C 6.7 °C 1012.1 hPa NNE 13 km/h 13 km/h 95% 0.0 mm 23 W/m2
05:59 7.3 °C 6.6 °C 1012.2 hPa NNE 13 km/h 13 km/h 95% 0.0 mm 25 W/m2
06:04 7.2 °C 6.5 °C 1012.3 hPa NNE 13 km/h 13 km/h 95% 0.0 mm 25 W/m2
06:09 7.1 °C 6.4 °C 1012.3 hPa NNE 13 km/h 13 km/h 95% 0.0 mm 28 W/m2
06:14 7.1 °C 6.4 °C 1012.4 hPa NNE 13 km/h 13 km/h 95% 0.0 mm 32 W/m2
Refsnesbakken, Moss, Norway
Compliments of Weather Underground - 2 mb